Archival Weather

Najaf

Najaf, Iraq (ORNI)

Report from: Tuesday, August 16, 2022 9:00 AM UTC
Current time: Friday, June 21, 2024 11:36 PM UTC

Current weather – Weather history – Daily summaries
Weather forecast

Temperature41.0°C (105.8°F)
Heat index38.9°C (102.0°F)
Dew point8.0°C (46.4°F)
Winds 18 kts (9.3 m/s, 20.7 mph) North-Northwest (340°)
Visibility3.7 mi. (6 km)
Clouds Scattered clouds 4,000 ft. (1,219 m)
Altimeter29.59 in.Hg (1002 mB)
Relative humidity14 %
Density altitude3,447 ft. (1,051 m)
Flight conditions Marginal Visual Meteorological Conditions
Raw dataORNI 160900Z 34018KT 6000 SCT040 41/08 Q1002
An error has occurred. This application may no longer respond until reloaded. Reload 🗙